createdAt,value
2022-11-07T00:01:21.308Z,714
2022-11-07T00:06:29.445Z,723.74684
2022-11-07T00:11:32.275Z,765.33333
2022-11-07T00:16:34.075Z,754.52632
2022-11-07T00:21:35.994Z,733.74359
2022-11-07T00:26:38.243Z,733.74359
2022-11-07T00:31:40.271Z,723.74684
2022-11-07T00:36:42.039Z,744
2022-11-07T00:41:43.993Z,744
2022-11-07T00:46:46.038Z,744
2022-11-07T00:51:47.458Z,723.74684
2022-11-07T00:56:49.866Z,733.74359
2022-11-07T01:01:52.331Z,723.74684
2022-11-07T01:06:54.203Z,723.74684
2022-11-07T01:11:55.978Z,714
2022-11-07T01:16:57.958Z,704.49383
2022-11-07T01:21:59.804Z,660.27907
2022-11-07T01:27:01.859Z,620.92308
2022-11-07T01:32:04.418Z,566.22222
2022-11-07T01:37:06.621Z,566.22222
2022-11-07T01:42:08.813Z,560
2022-11-07T01:47:10.602Z,560
2022-11-07T01:52:12.049Z,566.22222
2022-11-07T01:57:13.809Z,592.42105
2022-11-07T02:02:15.902Z,606.36559
2022-11-07T02:07:17.577Z,636.13483
2022-11-07T02:12:19.031Z,606.36559
2022-11-07T02:17:20.854Z,606.36559
2022-11-07T02:22:22.310Z,599.31915
2022-11-07T02:27:24.122Z,592.42105
2022-11-07T02:32:25.926Z,606.36559
2022-11-07T02:37:27.425Z,644
2022-11-07T02:42:29.140Z,677.33333
2022-11-07T02:47:30.667Z,686.16867
2022-11-07T02:52:32.124Z,723.74684
2022-11-07T02:57:33.794Z,733.74359
2022-11-07T03:02:35.829Z,744
2022-11-07T03:07:37.340Z,714
2022-11-07T03:12:39.003Z,714
2022-11-07T03:17:40.469Z,723.74684
2022-11-07T03:22:41.934Z,686.16867
2022-11-07T03:27:43.354Z,660.27907
2022-11-07T03:32:45.255Z,660.27907
2022-11-07T03:37:46.976Z,668.70588
2022-11-07T03:42:48.621Z,668.70588
2022-11-07T03:47:50.485Z,628.44444
2022-11-07T03:52:52.132Z,652.04598
2022-11-07T03:57:53.591Z,628.44444
2022-11-07T04:02:55.899Z,613.56522
2022-11-07T04:07:57.588Z,628.44444
2022-11-07T04:12:59.313Z,620.92308
2022-11-07T04:18:00.929Z,560
2022-11-07T04:23:02.788Z,514.37037
2022-11-07T04:28:04.391Z,504
2022-11-07T04:33:06.382Z,542.05825
2022-11-07T04:38:07.879Z,498.95495
2022-11-07T04:43:09.504Z,466.0339
2022-11-07T04:48:11.289Z,489.13274
2022-11-07T04:53:13.319Z,457.33333
2022-11-07T04:58:15.216Z,440.77419
2022-11-07T05:03:17.656Z,479.65217
2022-11-07T05:08:19.665Z,440.77419
2022-11-07T05:13:21.427Z,429.03937
2022-11-07T05:18:23.207Z,448.91803
2022-11-07T05:23:25.100Z,448.91803
2022-11-07T05:28:35.294Z,436.8
2022-11-07T05:33:39.289Z,432.88889
2022-11-07T05:38:41.043Z,494
2022-11-07T05:43:42.797Z,457.33333
2022-11-07T05:48:44.632Z,457.33333
2022-11-07T05:53:46.426Z,479.65217
2022-11-07T05:58:48.322Z,509.13761
2022-11-07T06:03:50.384Z,525.13208
2022-11-07T06:08:52.138Z,484.35088
2022-11-07T06:13:53.787Z,542.05825
2022-11-07T06:18:55.688Z,606.36559
2022-11-07T06:23:57.433Z,606.36559
2022-11-07T06:28:59.198Z,592.42105
2022-11-07T06:34:01.274Z,572.57143
2022-11-07T06:39:03.146Z,592.42105
2022-11-07T06:44:04.892Z,620.92308
2022-11-07T06:49:06.879Z,599.31915
2022-11-07T06:54:08.652Z,686.16867
2022-11-07T06:59:10.424Z,733.74359
2022-11-07T07:04:12.433Z,620.92308
2022-11-07T07:09:14.119Z,744
2022-11-07T07:14:15.926Z,744
2022-11-07T07:19:17.931Z,723.74684
2022-11-07T07:24:19.735Z,744
2022-11-07T07:29:21.643Z,754.52632
2022-11-07T07:34:23.517Z,695.21951
2022-11-07T07:39:25.231Z,695.21951
2022-11-07T07:44:26.679Z,733.74359
2022-11-07T07:49:28.296Z,744
2022-11-07T07:54:30.065Z,733.74359
2022-11-07T07:59:31.589Z,744
2022-11-07T08:04:33.297Z,787.83562
2022-11-07T08:09:34.981Z,744
2022-11-07T08:14:36.580Z,765.33333
2022-11-07T08:19:38.330Z,723.74684
2022-11-07T08:24:39.815Z,824
2022-11-07T08:29:41.378Z,824
2022-11-07T08:34:43.452Z,836.75362
2022-11-07T08:39:44.899Z,811.60563
2022-11-07T08:44:46.374Z,754.52632
2022-11-07T08:49:48.196Z,787.83562
2022-11-07T08:54:49.607Z,891.69231
2022-11-07T08:59:51.107Z,921.77778
2022-11-07T09:04:53.182Z,953.83607
2022-11-07T09:09:54.993Z,1044
2022-11-07T09:14:56.530Z,1006.06897
2022-11-07T09:19:58.199Z,1044
2022-11-07T09:25:00.054Z,988.0678
2022-11-07T09:30:02.051Z,1064
2022-11-07T09:35:05.181Z,1006.06897
2022-11-07T09:40:07.373Z,970.66667
2022-11-07T09:45:09.369Z,1024.70175
2022-11-07T09:50:11.477Z,953.83607
2022-11-07T09:55:13.473Z,953.83607
2022-11-07T10:00:16.088Z,1128.61538
2022-11-07T10:05:17.973Z,1064
2022-11-07T10:10:19.865Z,953.83607
2022-11-07T10:15:21.739Z,970.66667
2022-11-07T10:20:25.156Z,1024.70175
2022-11-07T10:25:26.936Z,1064
2022-11-07T10:30:28.529Z,988.0678
2022-11-07T10:35:30.273Z,1006.06897
2022-11-07T10:40:31.755Z,1106.26415
2022-11-07T10:45:33.330Z,1044
2022-11-07T10:50:34.871Z,1106.26415
2022-11-07T10:55:36.477Z,1128.61538
2022-11-07T11:00:38.121Z,1084.74074
2022-11-07T11:05:40.022Z,1006.06897
2022-11-07T11:10:41.481Z,988.0678
2022-11-07T11:15:43.139Z,1084.74074
2022-11-07T11:20:44.748Z,970.66667
2022-11-07T11:25:46.331Z,1064
2022-11-07T11:30:47.995Z,1044
2022-11-07T11:35:49.755Z,970.66667
2022-11-07T11:40:53.359Z,1024.70175
2022-11-07T11:45:57.234Z,1064
2022-11-07T11:50:58.726Z,1024.70175
2022-11-07T11:56:00.169Z,1006.06897
2022-11-07T12:01:02.063Z,953.83607
2022-11-07T12:06:03.810Z,1024.70175
2022-11-07T12:11:05.278Z,937.54839
2022-11-07T12:16:06.734Z,988.0678
2022-11-07T12:21:08.474Z,937.54839
2022-11-07T12:26:10.270Z,970.66667
2022-11-07T12:31:12.148Z,1064
2022-11-07T12:36:14.332Z,1064
2022-11-07T12:41:16.257Z,970.66667
2022-11-07T12:46:18.168Z,1024.70175
2022-11-07T12:51:19.994Z,787.83562
2022-11-07T12:56:21.980Z,937.54839
2022-11-07T13:01:23.921Z,836.75362
2022-11-07T13:06:26.212Z,891.69231
2022-11-07T13:11:27.879Z,799.55556
2022-11-07T13:16:29.564Z,765.33333
2022-11-07T13:21:31.372Z,811.60563
2022-11-07T13:26:47.038Z,787.83562
2022-11-07T13:31:49.659Z,660.27907
2022-11-07T13:36:51.650Z,787.83562
2022-11-07T13:41:53.655Z,787.83562
2022-11-07T13:46:55.431Z,723.74684
2022-11-07T13:51:57.390Z,714
2022-11-07T13:56:59.449Z,723.74684
2022-11-07T14:02:01.532Z,733.74359
2022-11-07T14:07:03.750Z,744
2022-11-07T14:12:05.749Z,754.52632
2022-11-07T14:17:07.579Z,836.75362
2022-11-07T14:22:14.563Z,765.33333
2022-11-07T14:27:16.562Z,787.83562
2022-11-07T14:32:18.361Z,754.52632
2022-11-07T14:37:20.480Z,754.52632
2022-11-07T14:42:22.319Z,787.83562
2022-11-07T14:47:24.225Z,754.52632
2022-11-07T14:52:26.343Z,776.43243
2022-11-07T14:57:28.446Z,824
2022-11-07T15:02:30.192Z,744
2022-11-07T15:07:32.146Z,799.55556
2022-11-07T15:12:33.600Z,754.52632
2022-11-07T15:17:39.957Z,704.49383
2022-11-07T15:22:42.159Z,799.55556
2022-11-07T15:27:44.009Z,776.43243
2022-11-07T15:32:46.035Z,765.33333
2022-11-07T15:37:48.133Z,714
2022-11-07T15:42:50.353Z,811.60563
2022-11-07T15:47:51.939Z,849.88235
2022-11-07T15:52:54.104Z,824
2022-11-07T15:57:55.889Z,824
2022-11-07T16:02:57.898Z,811.60563
2022-11-07T16:07:59.966Z,660.27907
2022-11-07T16:13:05.021Z,677.33333
2022-11-07T16:18:06.965Z,686.16867
2022-11-07T16:23:08.916Z,668.70588
2022-11-07T16:28:10.495Z,592.42105
2022-11-07T16:33:12.273Z,723.74684
2022-11-07T16:38:15.277Z,668.70588
2022-11-07T16:43:17.070Z,695.21951
2022-11-07T16:48:18.877Z,644
2022-11-07T16:53:20.725Z,613.56522
2022-11-07T16:58:22.277Z,620.92308
2022-11-07T17:03:24.000Z,566.22222
2022-11-07T17:08:25.924Z,599.31915
2022-11-07T17:13:27.655Z,613.56522
2022-11-07T17:18:29.650Z,579.05155
2022-11-07T17:23:31.333Z,606.36559
2022-11-07T17:28:33.056Z,606.36559
2022-11-07T17:33:34.507Z,592.42105
2022-11-07T17:38:36.526Z,636.13483
2022-11-07T17:43:38.115Z,572.57143
2022-11-07T17:48:44.763Z,599.31915
2022-11-07T17:53:49.513Z,585.66667
2022-11-07T17:58:51.340Z,606.36559
2022-11-07T18:03:53.101Z,579.05155
2022-11-07T18:08:55.798Z,620.92308
2022-11-07T18:13:57.863Z,660.27907
2022-11-07T18:18:59.620Z,628.44444
2022-11-07T18:24:01.677Z,644
2022-11-07T18:29:03.423Z,636.13483
2022-11-07T18:34:04.912Z,636.13483
2022-11-07T18:39:07.152Z,695.21951
2022-11-07T18:44:08.957Z,660.27907
2022-11-07T18:49:10.868Z,677.33333
2022-11-07T18:54:12.418Z,677.33333
2022-11-07T18:59:14.394Z,660.27907
2022-11-07T19:04:16.214Z,668.70588
2022-11-07T19:09:20.626Z,686.16867
2022-11-07T19:14:24.238Z,695.21951
2022-11-07T19:19:26.036Z,660.27907
2022-11-07T19:24:28.057Z,714
2022-11-07T19:29:30.159Z,660.27907
2022-11-07T19:34:31.972Z,704.49383
2022-11-07T19:39:33.816Z,723.74684
2022-11-07T19:44:35.623Z,765.33333
2022-11-07T19:49:37.091Z,744
2022-11-07T19:54:38.896Z,799.55556
2022-11-07T20:04:41.549Z,776.43243
2022-11-07T20:09:43.331Z,776.43243
2022-11-07T20:14:44.995Z,799.55556
2022-11-07T20:19:47.117Z,776.43243
2022-11-07T20:24:48.879Z,744
2022-11-07T20:29:50.690Z,787.83562
2022-11-07T20:34:53.947Z,714
2022-11-07T20:39:55.864Z,714
2022-11-07T20:44:57.535Z,765.33333
2022-11-07T20:49:59.344Z,714
2022-11-07T20:55:01.122Z,686.16867
2022-11-07T21:00:02.921Z,660.27907
2022-11-07T21:05:20.253Z,660.27907
2022-11-07T21:10:22.145Z,677.33333
2022-11-07T21:15:23.606Z,652.04598
2022-11-07T21:20:25.310Z,644
2022-11-07T21:25:26.762Z,613.56522
2022-11-07T21:30:28.249Z,620.92308
2022-11-07T21:35:33.505Z,628.44444
2022-11-07T21:40:35.250Z,620.92308
2022-11-07T21:45:37.069Z,606.36559
2022-11-07T21:50:44.620Z,660.27907
2022-11-07T21:55:47.068Z,704.49383
2022-11-07T22:00:49.047Z,714
2022-11-07T22:05:51.070Z,677.33333
2022-11-07T22:10:52.950Z,695.21951
2022-11-07T22:15:54.883Z,686.16867
2022-11-07T22:20:56.905Z,695.21951
2022-11-07T22:25:58.662Z,704.49383
2022-11-07T22:31:00.129Z,686.16867
2022-11-07T22:36:01.876Z,677.33333
2022-11-07T22:41:03.681Z,695.21951
2022-11-07T22:46:05.458Z,695.21951
2022-11-07T22:51:07.255Z,733.74359
2022-11-07T22:56:08.938Z,733.74359
2022-11-07T23:01:10.704Z,714
2022-11-07T23:06:12.955Z,714
2022-11-07T23:11:44.861Z,704.49383
2022-11-07T23:16:47.713Z,695.21951
2022-11-07T23:21:49.426Z,668.70588
2022-11-07T23:26:51.049Z,636.13483
2022-11-07T23:31:52.691Z,644
2022-11-07T23:36:54.529Z,606.36559
2022-11-07T23:41:56.321Z,613.56522
2022-11-07T23:46:58.142Z,636.13483
2022-11-07T23:52:00.111Z,628.44444
2022-11-07T23:57:01.948Z,686.16867
